Time;durP1;ratioP1;P1;durP2;ratioP2;P2;SDS_P1;SDS_P2;PMS_P1;PMS_P2;Temp;Humidity;BMP_temperature;BMP_pressure;BME280_temperature;BME280_humidity;BME280_pressure;Samples;Min_cycle;Max_cycle;Signal;HPM_P1;HPM_P2
2024/01/23 00:01:00;;;;;;;;;11.00;2.00;;;;;9.74;69.31;102277.03;4992087;28;45367;-40
2024/01/23 00:03:25;;;;;;;;;5.67;1.33;;;;;9.74;69.24;102277.03;4993697;28;45421;-40
2024/01/23 00:05:51;;;;;;;;;4.67;2.00;;;;;9.73;69.26;102283.28;4993652;28;45462;-40
2024/01/23 00:08:16;;;;;;;;;2.00;2.00;;;;;9.69;69.26;102290.63;4993504;28;45346;-40
2024/01/23 00:10:42;;;;;;;;;2.33;1.00;;;;;9.65;69.02;102285.59;4993193;28;45400;-38
2024/01/23 00:13:07;;;;;;;;;3.33;1.67;;;;;9.68;69.09;102294.22;5008892;28;45349;-39
2024/01/23 00:15:33;;;;;;;;;1.67;1.67;;;;;9.62;69.54;102292.00;4993504;28;45293;-41
2024/01/23 00:17:59;;;;;;;;;6.00;2.00;;;;;9.58;69.69;102290.50;4995524;28;45380;-39
2024/01/23 00:20:24;;;;;;;;;1.00;1.00;;;;;9.63;69.53;102298.16;4996319;28;45392;-39
2024/01/23 00:22:50;;;;;;;;;7.67;3.00;;;;;9.61;69.85;102316.88;4996378;27;45371;-41
2024/01/23 00:25:15;;;;;;;;;2.33;1.33;;;;;9.59;69.66;102321.41;4996669;28;45464;-39
2024/01/23 00:27:40;;;;;;;;;5.67;1.67;;;;;9.59;69.68;102323.22;4996120;28;45964;-39
2024/01/23 00:30:09;;;;;;;;;3.00;1.33;;;;;9.55;70.38;102327.03;4996277;28;45413;-41
2024/01/23 00:32:34;;;;;;;;;2.00;1.67;;;;;9.55;70.06;102335.84;5081693;27;45402;-39
2024/01/23 00:35:00;;;;;;;;;3.00;1.00;;;;;9.54;70.39;102342.13;4996200;28;45272;-38
2024/01/23 00:37:25;;;;;;;;;3.00;1.67;;;;;9.57;70.60;102338.41;4996113;28;47074;-40
2024/01/23 00:39:51;;;;;;;;;6.33;3.00;;;;;9.58;70.93;102338.31;4996156;28;45450;-39
2024/01/23 00:42:17;;;;;;;;;3.00;2.00;;;;;9.63;70.36;102341.50;4996203;28;45334;-39
2024/01/23 00:44:43;;;;;;;;;2.33;1.00;;;;;9.77;70.68;102366.31;4996516;28;45355;-39
2024/01/23 00:47:09;;;;;;;;;5.33;3.00;;;;;9.83;70.15;102364.13;4995855;28;45608;-40
2024/01/23 00:49:34;;;;;;;;;5.67;2.00;;;;;9.91;70.22;102364.44;4995704;28;45385;-40
2024/01/23 00:51:59;;;;;;;;;5.67;2.00;;;;;9.93;69.81;102357.22;4996173;28;45412;-40
2024/01/23 00:54:24;;;;;;;;;5.00;2.00;;;;;9.98;70.00;102365.72;5081722;27;45465;-40
2024/01/23 00:56:50;;;;;;;;;2.67;1.67;;;;;10.04;68.98;102364.47;4995718;28;46639;-39
2024/01/23 00:59:15;;;;;;;;;5.00;1.00;;;;;10.06;68.61;102365.22;4995949;28;45416;-40
2024/01/23 01:01:41;;;;;;;;;3.00;2.00;;;;;10.08;68.43;102365.97;4995890;28;45351;-40
2024/01/23 01:04:06;;;;;;;;;6.33;3.00;;;;;10.11;68.68;102354.25;4996567;28;45210;-40
2024/01/23 01:06:31;;;;;;;;;4.33;2.00;;;;;10.03;68.74;102353.94;4995832;28;45972;-40
2024/01/23 01:08:58;;;;;;;;;2.00;2.00;;;;;9.98;69.06;102372.84;4995375;28;45417;-40
2024/01/23 01:11:23;;;;;;;;;3.00;1.00;;;;;9.84;69.80;102363.16;4995740;28;46265;-39
2024/01/23 01:13:49;;;;;;;;;4.67;2.00;;;;;9.82;70.52;102372.16;4995922;28;45250;-40
2024/01/23 01:16:14;;;;;;;;;2.67;1.67;;;;;9.79;70.73;102385.69;4995624;28;45398;-40
2024/01/23 01:18:42;;;;;;;;;4.00;2.67;;;;;9.67;71.12;102374.06;4995704;28;45337;-40
2024/01/23 01:21:08;;;;;;;;;2.50;2.50;;;;;9.67;71.38;102380.22;4995997;28;45318;-40
2024/01/23 01:23:34;;;;;;;;;5.00;2.33;;;;;9.60;71.45;102373.59;4995853;28;45261;-40
2024/01/23 01:26:01;;;;;;;;;2.00;2.00;;;;;9.59;71.75;102377.19;4995435;28;46956;-39
2024/01/23 01:28:26;;;;;;;;;2.00;2.00;;;;;9.53;71.80;102367.00;4995547;28;45424;-40
2024/01/23 01:30:52;;;;;;;;;3.00;1.67;;;;;9.55;72.72;102388.97;4994802;28;45309;-39
2024/01/23 01:33:18;;;;;;;;;6.00;5.00;;;;;9.52;71.59;102377.69;5080989;27;45466;-39
2024/01/23 01:35:44;;;;;;;;;1.00;1.00;;;;;9.53;71.42;102390.06;4995282;27;46122;-40
2024/01/23 01:38:09;;;;;;;;;1.33;1.00;;;;;9.50;72.44;102389.28;4995353;28;45350;-39
2024/01/23 01:40:34;;;;;;;;;1.00;1.00;;;;;9.46;71.51;102395.75;4995696;28;45365;-40
2024/01/23 01:43:00;;;;;;;;;5.00;1.33;;;;;9.47;72.25;102392.13;4995337;28;45285;-39
2024/01/23 01:45:25;;;;;;;;;7.67;1.33;;;;;9.48;72.34;102400.94;4995460;28;45384;-39
2024/01/23 01:47:52;;;;;;;;;2.00;1.00;;;;;9.41;72.34;102397.00;4995254;28;47125;-38
2024/01/23 01:50:18;;;;;;;;;1.00;1.00;;;;;9.44;72.55;102407.44;4995171;28;45358;-40
2024/01/23 01:52:44;;;;;;;;;4.67;2.00;;;;;9.44;72.14;102410.09;4995506;28;45354;-39
2024/01/23 01:55:09;;;;;;;;;8.00;1.33;;;;;9.40;71.90;102405.94;4995127;28;46580;-38
2024/01/23 01:57:42;;;;;;;;;2.33;1.00;;;;;9.33;72.57;102402.81;4995194;28;45355;-40
2024/01/23 02:00:08;;;;;;;;;2.67;1.00;;;;;9.34;73.10;102415.13;4995400;28;45435;-38
2024/01/23 02:02:34;;;;;;;;;4.33;2.00;;;;;9.30;72.84;102410.94;4995240;28;45436;-40
2024/01/23 02:05:00;;;;;;;;;9.00;2.00;;;;;9.34;72.52;102427.56;4994724;28;47057;-41
2024/01/23 02:07:25;;;;;;;;;6.00;1.67;;;;;9.33;72.74;102428.50;4994867;28;45307;-38
2024/01/23 02:09:51;;;;;;;;;1.00;1.00;;;;;9.30;72.90;102410.94;4995185;28;45385;-40
2024/01/23 02:12:16;;;;;;;;;2.33;1.00;;;;;9.29;73.08;102421.69;4995258;28;45229;-40
2024/01/23 02:14:42;;;;;;;;;5.00;3.00;;;;;9.27;73.08;102423.56;4994803;28;46051;-40
2024/01/23 02:17:07;;;;;;;;;13.67;7.67;;;;;9.27;73.02;102435.06;4995016;28;45341;-40
2024/01/23 02:19:32;;;;;;;;;1.00;1.00;;;;;9.26;72.66;102430.69;4995148;28;45424;-41
2024/01/23 02:21:58;;;;;;;;;3.67;1.00;;;;;9.19;72.62;102424.94;4995450;28;45411;-40
2024/01/23 02:24:23;;;;;;;;;4.00;1.33;;;;;9.22;72.48;102430.03;4994945;28;45433;-41
2024/01/23 02:26:48;;;;;;;;;6.67;1.00;;;;;9.21;72.82;102438.09;5079491;27;45433;-39
2024/01/23 02:29:15;;;;;;;;;5.00;1.00;;;;;9.21;72.76;102443.41;4995040;28;45246;-40
2024/01/23 02:31:41;;;;;;;;;3.00;3.00;;;;;9.19;72.63;102440.84;4995311;28;45336;-39
2024/01/23 02:34:06;;;;;;;;;5.67;2.00;;;;;9.20;72.78;102452.34;4994584;28;46564;-40
2024/01/23 02:36:36;;;;;;;;;5.67;2.00;;;;;9.15;73.40;102428.72;4994577;28;45355;-41
2024/01/23 02:39:03;;;;;;;;;5.33;0.67;;;;;9.16;73.40;102441.03;4994810;28;45423;-40
2024/01/23 02:41:29;;;;;;;;;6.00;2.00;;;;;9.11;73.19;102437.84;4993540;28;45558;-39
2024/01/23 02:43:54;;;;;;;;;3.67;3.00;;;;;9.14;73.19;102431.44;4994374;28;46330;-40
2024/01/23 02:46:20;;;;;;;;;4.33;2.00;;;;;9.12;73.10;102430.72;4994411;28;45323;-40
2024/01/23 02:48:45;;;;;;;;;5.67;1.67;;;;;9.11;73.90;102424.56;4994565;28;45456;-42
2024/01/23 02:51:17;;;;;;;;;2.67;2.00;;;;;9.06;73.67;102424.00;4994853;28;45313;-40
2024/01/23 02:53:43;;;;;;;;;7.00;2.67;;;;;9.09;73.60;102433.56;4994282;28;46976;-42
2024/01/23 02:56:08;;;;;;;;;3.67;2.00;;;;;9.08;73.96;102445.97;4994553;28;45445;-39
2024/01/23 02:58:33;;;;;;;;;10.33;3.00;;;;;9.09;73.99;102458.28;4994423;28;45317;-39
2024/01/23 03:00:59;;;;;;;;;3.33;0.33;;;;;9.06;74.28;102445.22;4994740;28;45464;-40
2024/01/23 03:03:24;;;;;;;;;5.00;2.00;;;;;9.07;74.83;102457.56;4994183;28;45476;-40
2024/01/23 03:05:49;;;;;;;;;6.33;3.00;;;;;9.05;74.28;102455.94;4994242;28;45386;-40
2024/01/23 03:08:15;;;;;;;;;5.67;1.67;;;;;9.05;74.53;102461.22;4994595;28;45468;-40
2024/01/23 03:10:40;;;;;;;;;5.67;3.00;;;;;9.03;74.56;102453.38;4994605;28;45433;-39
2024/01/23 03:13:06;;;;;;;;;5.33;1.33;;;;;9.04;74.31;102448.91;4994128;28;45643;-40
2024/01/23 03:15:31;;;;;;;;;3.67;2.00;;;;;9.03;75.01;102450.72;4994068;27;45323;-39
2024/01/23 03:17:58;;;;;;;;;9.00;3.00;;;;;9.03;75.23;102444.56;4994276;28;45475;-39
2024/01/23 03:20:28;;;;;;;;;6.67;2.00;;;;;9.00;75.25;102450.91;4994071;28;45306;-40
2024/01/23 03:22:53;;;;;;;;;6.00;2.00;;;;;9.00;75.44;102453.56;4993784;28;46905;-39
2024/01/23 03:25:19;;;;;;;;;5.67;1.33;;;;;8.98;74.96;102458.13;4993822;28;45374;-39
2024/01/23 03:27:45;;;;;;;;;3.67;3.00;;;;;8.98;75.61;102456.31;4993913;28;45398;-40
2024/01/23 03:30:27;;;;;;;;;7.00;2.00;;;;;8.96;75.54;102454.69;4994243;28;45357;-40
2024/01/23 03:32:52;;;;;;;;;2.33;2.00;;;;;8.96;75.63;102452.03;5078592;27;47783;-39
2024/01/23 03:35:17;;;;;;;;;10.67;2.00;;;;;8.93;75.22;102454.88;4993149;28;53297;-40
2024/01/23 03:37:43;;;;;;;;;5.00;2.33;;;;;8.92;75.83;102451.38;4994176;28;45463;-38
2024/01/23 03:40:09;;;;;;;;;2.67;2.00;;;;;8.87;75.66;102442.84;4994152;28;45410;-40
2024/01/23 03:42:34;;;;;;;;;5.00;0.00;;;;;8.91;75.45;102459.44;4993527;28;47065;-39
2024/01/23 03:45:00;;;;;;;;;6.00;2.00;;;;;8.91;75.31;102454.97;4993589;28;45430;-39
2024/01/23 03:47:25;;;;;;;;;6.00;2.00;;;;;8.92;75.36;102469.09;4993678;28;45414;-40
2024/01/23 03:49:50;;;;;;;;;5.00;1.00;;;;;8.87;76.30;102471.19;4993855;28;45276;-40
2024/01/23 03:52:16;;;;;;;;;1.33;1.00;;;;;8.90;75.82;102476.31;4994621;28;46169;-39
2024/01/23 03:54:42;;;;;;;;;6.00;1.00;;;;;8.89;75.83;102477.25;5000033;28;45376;-39
2024/01/23 03:57:07;;;;;;;;;10.33;2.67;;;;;8.90;76.31;102479.81;5000395;28;45415;-39
2024/01/23 03:59:32;;;;;;;;;1.00;0.33;;;;;8.89;75.67;102490.50;5000294;28;45423;-39
2024/01/23 04:01:57;;;;;;;;;5.00;1.00;;;;;8.89;75.49;102495.81;4999915;28;47190;-38
2024/01/23 04:04:23;;;;;;;;;2.33;2.00;;;;;8.90;75.91;102494.91;5000111;28;45416;-40
2024/01/23 04:06:48;;;;;;;;;5.67;2.33;;;;;8.88;76.00;102494.97;5000086;28;45367;-41
2024/01/23 04:09:13;;;;;;;;;2.00;2.00;;;;;8.87;75.68;102495.06;5000343;28;45398;-39
2024/01/23 04:11:39;;;;;;;;;3.00;2.67;;;;;8.77;76.08;102476.22;5000064;28;45323;-39
2024/01/23 04:14:04;;;;;;;;;21.00;8.33;;;;;8.85;75.59;102494.28;4999880;28;45412;-40
2024/01/23 04:16:29;;;;;;;;;5.67;2.67;;;;;8.83;75.87;102501.50;5000060;28;45400;-38
2024/01/23 04:18:55;;;;;;;;;9.00;3.67;;;;;8.84;76.19;102503.22;5000059;28;45322;-40
2024/01/23 04:21:20;;;;;;;;;10.00;3.00;;;;;8.76;76.16;102493.06;4999798;28;48527;-39
2024/01/23 04:23:45;;;;;;;;;6.67;3.00;;;;;8.86;76.11;102515.44;4999340;28;45335;-40
2024/01/23 04:26:11;;;;;;;;;6.67;5.00;;;;;8.93;75.72;102513.25;5000127;28;45243;-40
2024/01/23 04:28:36;;;;;;;;;2.67;2.33;;;;;8.99;75.47;102519.06;4999967;28;45318;-39
2024/01/23 04:31:02;;;;;;;;;6.00;2.00;;;;;9.06;75.92;102516.03;4999744;28;46101;-39
2024/01/23 04:33:27;;;;;;;;;6.67;2.00;;;;;9.09;75.35;102513.19;4999865;28;45292;-40
2024/01/23 04:35:52;;;;;;;;;6.67;1.33;;;;;8.88;75.86;102479.03;4999798;28;45822;-40
2024/01/23 04:38:18;;;;;;;;;5.00;3.00;;;;;9.18;75.31;102524.09;4999947;28;45345;-39
2024/01/23 04:40:43;;;;;;;;;3.00;2.00;;;;;9.16;74.75;102527.81;4999602;28;45434;-40
2024/01/23 04:43:08;;;;;;;;;6.00;3.00;;;;;9.14;74.92;102529.69;4999502;28;45375;-38
2024/01/23 04:45:34;;;;;;;;;5.67;2.67;;;;;9.19;75.43;102538.25;4999549;28;45368;-40
2024/01/23 04:47:59;;;;;;;;;9.33;2.00;;;;;9.21;74.91;102542.50;4999602;28;45443;-40
2024/01/23 04:50:24;;;;;;;;;5.00;2.00;;;;;9.25;75.08;102543.19;4998750;28;46545;-39
2024/01/23 04:52:52;;;;;;;;;6.00;2.00;;;;;9.29;75.30;102549.16;4999113;28;45544;-40
2024/01/23 04:55:17;;;;;;;;;1.67;1.00;;;;;9.32;75.27;102562.25;4999098;28;45459;-40
2024/01/23 04:57:42;;;;;;;;;10.00;2.67;;;;;9.32;75.02;102571.06;4999401;28;45332;-40
2024/01/23 05:00:09;;;;;;;;;4.33;1.00;;;;;9.34;74.93;102577.13;4999153;28;45467;-41
2024/01/23 05:02:35;;;;;;;;;11.00;3.00;;;;;9.38;75.05;102593.75;4999037;28;45435;-40
2024/01/23 05:05:01;;;;;;;;;2.00;2.00;;;;;9.39;74.57;102590.97;4995730;28;45467;-40
2024/01/23 05:07:26;;;;;;;;;7.67;2.33;;;;;9.38;75.09;102588.44;4995730;28;45333;-39
2024/01/23 05:09:51;;;;;;;;;13.00;2.00;;;;;9.29;74.91;102567.75;4995542;28;45595;-40
2024/01/23 05:12:17;;;;;;;;;6.33;2.00;;;;;9.38;75.38;102578.66;4995555;28;46925;-40
2024/01/23 05:14:42;;;;;;;;;11.33;3.00;;;;;9.39;75.24;102588.31;4995927;28;45332;-40
2024/01/23 05:17:07;;;;;;;;;5.67;1.67;;;;;9.39;75.20;102576.84;4996040;28;45417;-41
2024/01/23 05:19:33;;;;;;;;;12.33;7.00;;;;;9.43;75.34;102586.34;4995481;28;45370;-40
2024/01/23 05:21:58;;;;;;;;;6.67;2.67;;;;;9.45;75.06;102579.16;4995599;28;45475;-41
2024/01/23 05:24:25;;;;;;;;;5.67;2.33;;;;;9.43;74.97;102586.34;4995580;28;45361;-40
2024/01/23 05:26:50;;;;;;;;;8.00;5.00;;;;;9.38;75.50;102594.59;4995737;28;45478;-40
2024/01/23 05:29:15;;;;;;;;;6.33;4.33;;;;;9.40;75.53;102597.19;4995122;28;46175;-40
2024/01/23 05:31:41;;;;;;;;;9.00;3.00;;;;;9.40;75.97;102615.78;4995495;28;45434;-40
2024/01/23 05:34:06;;;;;;;;;3.00;1.00;;;;;9.39;75.52;102609.56;4995520;28;45390;-40
2024/01/23 05:36:31;;;;;;;;;6.67;3.00;;;;;9.40;75.52;102611.31;4995385;28;45253;-40
2024/01/23 05:38:57;;;;;;;;;12.33;3.00;;;;;9.41;75.63;102620.13;4995124;28;46591;-40
2024/01/23 05:41:22;;;;;;;;;8.00;2.00;;;;;9.40;75.32;102621.06;4995399;28;45491;-39
2024/01/23 05:43:47;;;;;;;;;5.67;5.00;;;;;9.38;75.69;102621.16;4995335;28;45338;-40
2024/01/23 05:46:13;;;;;;;;;4.33;3.67;;;;;9.40;75.28;102621.94;4995501;28;45516;-38
2024/01/23 05:48:38;;;;;;;;;12.33;2.00;;;;;9.43;75.61;102644.78;4995081;28;45988;-38
2024/01/23 05:51:04;;;;;;;;;6.00;3.00;;;;;9.44;75.81;102639.41;4995003;28;45459;-39
2024/01/23 05:53:29;;;;;;;;;2.67;2.00;;;;;9.42;75.77;102641.28;4995285;28;45387;-39
2024/01/23 05:55:54;;;;;;;;;2.33;1.33;;;;;9.45;75.42;102648.22;4995386;28;45345;-40
2024/01/23 05:58:20;;;;;;;;;10.00;3.00;;;;;9.41;75.27;102654.66;4995020;28;46091;-41
2024/01/23 06:00:45;;;;;;;;;6.00;1.33;;;;;9.36;75.77;102651.44;4994901;28;45318;-39
2024/01/23 06:03:10;;;;;;;;;8.00;2.33;;;;;9.39;75.51;102664.50;4994977;28;45436;-40
2024/01/23 06:05:35;;;;;;;;;2.00;0.67;;;;;9.35;75.43;102665.63;4995316;28;45484;-40
2024/01/23 06:08:01;;;;;;;;;3.00;1.00;;;;;9.28;75.99;102654.53;4994842;28;46111;-37
2024/01/23 06:10:26;;;;;;;;;4.33;2.67;;;;;9.31;76.50;102656.13;4994794;28;45436;-39
2024/01/23 06:12:52;;;;;;;;;6.33;3.00;;;;;9.33;76.12;102660.41;4994724;28;45437;-39
2024/01/23 06:15:18;;;;;;;;;7.33;4.33;;;;;9.33;76.36;102668.38;4994739;28;45348;-40
2024/01/23 06:17:43;;;;;;;;;5.67;3.67;;;;;9.34;76.55;102661.28;4994682;28;46069;-40
2024/01/23 06:20:12;;;;;;;;;8.00;4.33;;;;;9.25;76.53;102652.91;4994646;28;45394;-40
2024/01/23 06:22:38;;;;;;;;;3.67;2.67;;;;;9.23;76.67;102652.16;4994955;28;45438;-40
2024/01/23 06:25:06;;;;;;;;;6.00;3.67;;;;;9.30;76.11;102667.72;4994943;28;45258;-39
2024/01/23 06:27:32;;;;;;;;;6.33;2.00;;;;;9.29;76.86;102658.91;4994585;28;47433;-39
2024/01/23 06:29:58;;;;;;;;;9.33;5.00;;;;;9.31;76.78;102661.44;4994520;28;45316;-39
2024/01/23 06:32:24;;;;;;;;;5.33;2.00;;;;;9.26;76.38;102656.41;4994795;28;45267;-40
2024/01/23 06:34:52;;;;;;;;;6.00;3.00;;;;;9.30;76.58;102660.59;4994921;28;45452;-39
2024/01/23 06:37:19;;;;;;;;;4.00;2.00;;;;;9.17;76.67;102633.91;4994520;28;45471;-39
2024/01/23 06:39:45;;;;;;;;;5.00;3.00;;;;;9.28;77.04;102661.66;4994615;28;45412;-40
2024/01/23 06:42:10;;;;;;;;;6.00;3.67;;;;;9.30;77.16;102660.59;4994676;28;45295;-40
2024/01/23 06:44:35;;;;;;;;;5.67;3.00;;;;;9.27;76.90;102651.94;4994652;28;45447;-40
2024/01/23 06:47:01;;;;;;;;;0.67;0.67;;;;;9.28;76.98;102659.00;4994365;28;46975;-39
2024/01/23 06:49:26;;;;;;;;;7.33;3.67;;;;;9.27;76.74;102652.84;4994383;28;45332;-40
2024/01/23 06:51:52;;;;;;;;;4.67;3.00;;;;;9.24;76.84;102656.50;4993358;28;45293;-40
2024/01/23 06:54:17;;;;;;;;;7.00;3.00;;;;;9.25;77.31;102657.38;4994668;28;45386;-38
2024/01/23 06:56:45;;;;;;;;;5.00;3.67;;;;;9.23;76.89;102659.28;4994393;28;46291;-40
2024/01/23 06:59:12;;;;;;;;;8.33;3.67;;;;;9.27;77.19;102662.56;4993857;28;45394;-40
2024/01/23 07:01:37;;;;;;;;;3.00;3.00;;;;;9.24;77.20;102663.63;4994111;28;45356;-40
2024/01/23 07:04:02;;;;;;;;;3.00;2.00;;;;;9.26;77.13;102669.69;4994183;28;45421;-40
2024/01/23 07:06:28;;;;;;;;;9.00;3.00;;;;;9.23;77.60;102659.28;4994043;28;46606;-41
2024/01/23 07:08:53;;;;;;;;;3.00;3.00;;;;;9.26;77.59;102664.38;4994142;28;45407;-40
2024/01/23 07:11:20;;;;;;;;;8.00;2.00;;;;;9.27;77.54;102670.53;4994215;28;45361;-38
2024/01/23 07:13:45;;;;;;;;;10.67;5.00;;;;;9.24;77.77;102677.75;4994197;28;45387;-40
2024/01/23 07:16:11;;;;;;;;;12.67;3.00;;;;;9.25;78.05;102679.47;4994675;28;46276;-40
2024/01/23 07:18:36;;;;;;;;;11.00;6.00;;;;;9.21;78.12;102680.59;4993847;28;47554;-41
2024/01/23 07:21:01;;;;;;;;;6.00;3.00;;;;;9.28;78.25;102693.53;4994019;28;45318;-39
2024/01/23 07:23:27;;;;;;;;;8.33;4.33;;;;;9.28;77.31;102698.84;4994517;27;45210;-39
2024/01/23 07:25:52;;;;;;;;;3.00;3.00;;;;;9.27;77.50;102711.25;4994135;28;46238;-40
2024/01/23 07:28:17;;;;;;;;;8.67;3.33;;;;;9.29;77.58;102709.34;4993408;28;45539;-40
2024/01/23 07:30:43;;;;;;;;;6.33;3.67;;;;;9.29;78.27;102709.34;4994333;28;45430;-40
2024/01/23 07:33:09;;;;;;;;;5.67;4.33;;;;;9.30;78.06;102710.22;4993059;28;45329;-40
2024/01/23 07:35:34;;;;;;;;;6.67;4.33;;;;;9.35;78.02;102708.13;4993833;27;46541;-39
2024/01/23 07:38:00;;;;;;;;;5.33;2.67;;;;;9.35;77.96;102700.16;4993888;28;45340;-40
2024/01/23 07:40:25;;;;;;;;;8.00;2.67;;;;;9.36;78.10;102694.78;4993960;28;45427;-38
2024/01/23 07:42:51;;;;;;;;;7.00;5.00;;;;;9.33;77.90;102694.94;4994245;28;45330;-39
2024/01/23 07:45:16;;;;;;;;;6.33;5.67;;;;;9.39;77.71;102699.88;4993597;28;45511;-40
2024/01/23 07:47:43;;;;;;;;;4.33;3.00;;;;;9.43;77.94;102696.09;4993844;28;45475;-39
2024/01/23 07:50:08;;;;;;;;;6.00;6.00;;;;;9.43;78.20;102698.75;4995205;28;45491;-40
2024/01/23 07:52:35;;;;;;;;;2.00;2.00;;;;;9.43;78.06;102703.22;4994051;28;45405;-40
2024/01/23 07:55:02;;;;;;;;;7.33;4.33;;;;;9.45;78.33;102712.81;4993462;28;46500;-39
2024/01/23 07:57:28;;;;;;;;;9.00;2.00;;;;;9.45;78.15;102723.44;4993398;28;45517;-40
2024/01/23 07:59:53;;;;;;;;;8.67;4.33;;;;;9.49;78.16;102730.28;4993827;28;45350;-40
2024/01/23 08:02:19;;;;;;;;;9.33;6.33;;;;;9.50;78.50;102741.75;4993857;28;45614;-39
2024/01/23 08:04:44;;;;;;;;;9.33;6.00;;;;;9.52;78.73;102737.19;4993320;28;46372;-40
2024/01/23 08:07:09;;;;;;;;;6.00;5.00;;;;;9.53;78.40;102744.25;4993805;28;45370;-40
2024/01/23 08:09:35;;;;;;;;;4.67;3.67;;;;;9.49;78.44;102732.94;4993646;27;45364;-39
2024/01/23 08:12:01;;;;;;;;;10.00;5.33;;;;;9.58;78.19;102743.97;4993744;28;45398;-40
2024/01/23 08:14:27;;;;;;;;;8.00;5.00;;;;;9.63;78.28;102736.56;4993389;28;45305;-40
2024/01/23 08:16:52;;;;;;;;;13.00;5.00;;;;;9.69;78.20;102734.41;4992847;28;45433;-40
2024/01/23 08:19:17;;;;;;;;;15.00;9.00;;;;;9.79;78.19;102742.69;4993367;28;45951;-40
2024/01/23 08:21:43;;;;;;;;;6.00;5.00;;;;;9.85;77.87;102749.41;4993686;28;45423;-39
2024/01/23 08:24:08;;;;;;;;;9.00;4.33;;;;;9.82;77.82;102745.16;4993604;28;45969;-40
2024/01/23 08:26:33;;;;;;;;;6.00;2.00;;;;;9.87;77.92;102751.06;4993330;28;45374;-40
2024/01/23 08:28:59;;;;;;;;;9.00;4.00;;;;;9.84;78.15;102743.25;4993154;28;45420;-41
2024/01/23 08:31:24;;;;;;;;;4.67;3.00;;;;;9.83;78.02;102749.53;4993497;28;45298;-39
2024/01/23 08:33:50;;;;;;;;;5.00;5.00;;;;;9.84;78.10;102737.94;4992990;28;46019;-40
2024/01/23 08:36:15;;;;;;;;;11.00;5.00;;;;;9.88;77.76;102757.22;4991939;28;45490;-38
2024/01/23 08:38:41;;;;;;;;;5.00;5.00;;;;;9.87;78.23;102759.03;4993356;28;45527;-40
2024/01/23 08:41:07;;;;;;;;;9.33;5.00;;;;;9.88;78.10;102747.44;4995386;28;45227;-40
2024/01/23 08:43:34;;;;;;;;;4.33;4.00;;;;;9.92;78.29;102750.78;4996031;28;47232;-40
2024/01/23 08:45:59;;;;;;;;;10.00;5.00;;;;;9.98;77.95;102750.38;4994575;28;45365;-40
2024/01/23 08:48:25;;;;;;;;;7.00;6.00;;;;;9.81;77.91;102722.16;4996135;28;45404;-40
2024/01/23 08:50:51;;;;;;;;;8.33;5.00;;;;;10.10;77.46;102757.63;4996084;28;45244;-39
2024/01/23 08:53:17;;;;;;;;;14.33;6.67;;;;;10.15;77.31;102759.97;4995799;28;46419;-38
2024/01/23 08:55:44;;;;;;;;;3.00;3.00;;;;;10.11;77.43;102739.84;4995782;28;45334;-40
2024/01/23 08:58:09;;;;;;;;;5.00;2.67;;;;;10.20;77.33;102750.78;5011167;28;45492;-40
2024/01/23 09:00:34;;;;;;;;;16.00;6.33;;;;;10.21;77.64;102749.84;4995289;28;45715;-40
2024/01/23 09:03:00;;;;;;;;;10.33;6.67;;;;;10.24;77.37;102749.69;4995792;28;45337;-40
2024/01/23 09:05:25;;;;;;;;;2.33;2.33;;;;;10.29;77.23;102749.41;4995744;28;45427;-39
2024/01/23 09:07:50;;;;;;;;;7.33;5.00;;;;;10.34;77.22;102746.44;4996068;28;45328;-40
2024/01/23 09:10:16;;;;;;;;;6.33;1.33;;;;;10.41;76.86;102750.44;4996152;28;45387;-38
2024/01/23 09:12:41;;;;;;;;;4.33;2.00;;;;;10.49;76.67;102748.13;4995805;28;47120;-40
2024/01/23 09:15:09;;;;;;;;;6.67;6.00;;;;;10.62;76.39;102750.84;4995556;28;45327;-38
2024/01/23 09:17:35;;;;;;;;;7.67;4.33;;;;;10.66;76.19;102761.25;4995721;28;45495;-40
2024/01/23 09:20:00;;;;;;;;;6.33;6.00;;;;;10.69;76.28;102758.34;4996068;28;45320;-40
2024/01/23 09:22:28;;;;;;;;;8.67;3.00;;;;;10.72;76.28;102762.66;4995566;28;45461;-39
2024/01/23 09:24:53;;;;;;;;;8.33;3.33;;;;;10.81;76.31;102759.38;4996726;28;45391;-40
2024/01/23 09:27:19;;;;;;;;;9.00;3.67;;;;;10.92;75.38;102750.72;4995631;28;45426;-40
2024/01/23 09:29:44;;;;;;;;;5.00;3.00;;;;;11.03;75.93;102742.84;4995835;28;45424;-40
2024/01/23 09:32:10;;;;;;;;;7.00;5.00;;;;;11.17;75.28;102747.31;4995456;28;46116;-40
2024/01/23 09:34:36;;;;;;;;;7.33;3.67;;;;;11.22;74.80;102737.19;4994099;28;45419;-40
2024/01/23 09:37:02;;;;;;;;;10.33;7.00;;;;;11.21;74.82;102741.66;4995439;28;45557;-39
2024/01/23 09:39:27;;;;;;;;;15.00;6.67;;;;;11.18;74.77;102741.00;4995753;28;45274;-40
2024/01/23 09:41:58;;;;;;;;;9.00;6.00;;;;;11.16;74.95;102750.88;4995217;28;46184;-40
2024/01/23 09:44:24;;;;;;;;;10.67;5.33;;;;;11.14;74.91;102744.81;4995289;28;45490;-40
2024/01/23 09:46:51;;;;;;;;;5.33;3.33;;;;;11.15;74.63;102747.38;4995199;28;45259;-40
2024/01/23 09:49:17;;;;;;;;;12.00;7.00;;;;;11.17;74.87;102748.16;4995331;28;45428;-40
2024/01/23 09:51:47;;;;;;;;;12.00;10.00;;;;;11.23;74.26;102737.06;4994568;28;46270;-40
2024/01/23 09:54:16;;;;;;;;;19.67;11.00;;;;;11.28;74.50;102739.44;4995158;28;45906;-41
2024/01/23 09:56:42;;;;;;;;;12.00;4.67;;;;;11.15;74.43;102731.41;4995149;28;45359;-40
2024/01/23 09:59:09;;;;;;;;;10.00;6.00;;;;;11.07;75.01;102723.06;4995232;28;45403;-41
2024/01/23 10:01:36;;;;;;;;;12.33;7.67;;;;;11.06;74.95;102724.03;4994879;28;46594;-40
2024/01/23 10:04:05;;;;;;;;;6.00;3.00;;;;;11.01;75.13;102728.81;4995008;28;45352;-42
2024/01/23 10:06:34;;;;;;;;;12.33;4.00;;;;;10.99;75.20;102709.38;4995199;28;45473;-38
2024/01/23 10:08:59;;;;;;;;;1.00;0.00;;;;;10.95;75.25;102721.19;4995453;28;45472;-40
2024/01/23 10:11:32;;;;;;;;;5.33;4.67;;;;;10.91;75.69;102725.03;4994998;28;45499;-39
2024/01/23 10:14:01;;;;;;;;;10.67;4.33;;;;;10.90;75.63;102731.31;4995121;28;45344;-40
2024/01/23 10:16:26;;;;;;;;;9.67;6.67;;;;;10.89;75.86;102734.94;4994893;28;45482;-40
2024/01/23 10:18:52;;;;;;;;;6.33;5.00;;;;;10.89;76.23;102733.13;4995222;28;45355;-40
2024/01/23 10:21:22;;;;;;;;;8.67;6.00;;;;;10.86;76.29;102729.78;4994900;28;45918;-40
2024/01/23 10:23:50;;;;;;;;;13.00;3.00;;;;;10.82;76.18;102729.13;4994990;28;45292;-39
2024/01/23 10:26:17;;;;;;;;;14.00;8.00;;;;;10.81;76.64;102718.59;4995006;28;45369;-40
2024/01/23 10:28:46;;;;;;;;;7.67;7.33;;;;;10.76;76.45;102726.03;4995169;28;45421;-40
2024/01/23 10:31:12;;;;;;;;;10.33;6.33;;;;;10.75;76.99;102717.19;4994678;28;47069;-40
2024/01/23 10:33:38;;;;;;;;;6.67;6.67;;;;;10.67;76.98;102714.19;4994781;28;45361;-39
2024/01/23 10:36:08;;;;;;;;;7.00;5.33;;;;;10.73;77.20;102722.59;4994599;28;45529;-45
2024/01/23 10:38:37;;;;;;;;;12.67;6.33;;;;;10.72;76.79;102723.56;4994941;28;45500;-38
2024/01/23 10:41:06;;;;;;;;;9.00;5.33;;;;;10.69;77.23;102722.91;4994557;28;46295;-40
2024/01/23 10:43:32;;;;;;;;;11.67;6.67;;;;;10.68;77.06;102724.72;4994573;28;45349;-40
2024/01/23 10:45:59;;;;;;;;;8.67;5.67;;;;;10.66;77.45;102731.97;4994990;28;45457;-40
2024/01/23 10:48:25;;;;;;;;;25.33;19.33;;;;;10.59;77.35;102727.97;4994785;28;45377;-40
2024/01/23 10:51:01;;;;;;;;;11.67;6.67;;;;;10.65;78.06;102740.03;4994356;28;46179;-40
2024/01/23 10:53:54;;;;;;;;;11.00;9.00;;;;;10.64;77.89;102740.97;4994609;28;45356;-39
2024/01/23 10:56:21;;;;;;;;;13.33;7.00;;;;;10.64;78.00;102725.00;4994373;28;45387;-40
2024/01/23 10:58:56;;;;;;;;;11.67;7.00;;;;;10.63;78.85;102705.53;4994921;28;45373;-41
2024/01/23 11:01:23;;;;;;;;;17.67;7.00;;;;;10.59;79.21;102669.41;4994454;28;46378;-40
2024/01/23 11:03:48;;;;;;;;;14.00;4.67;;;;;10.55;79.66;102675.03;4993321;28;45482;-40
2024/01/23 11:06:22;;;;;;;;;14.67;7.33;;;;;10.65;79.74;102684.97;4994575;28;45290;-40
2024/01/23 11:09:20;;;;;;;;;10.33;5.33;;;;;10.64;79.45;102699.25;4994736;28;45714;-38
2024/01/23 11:12:05;;;;;;;;;13.33;10.00;;;;;10.60;80.04;102689.75;4993911;28;47354;-40
2024/01/23 11:14:42;;;;;;;;;14.33;6.00;;;;;10.54;79.76;102687.50;4993744;28;45368;-40
2024/01/23 11:17:09;;;;;;;;;15.00;9.33;;;;;10.57;80.55;102676.63;4994296;28;45264;-40
2024/01/23 11:19:42;;;;;;;;;13.00;8.67;;;;;10.57;80.25;102642.03;4994617;28;45362;-39
2024/01/23 11:22:10;;;;;;;;;5.00;2.00;;;;;10.58;81.43;102634.94;4994103;28;45647;-40
2024/01/23 11:24:39;;;;;;;;;13.67;8.00;;;;;10.61;81.29;102634.72;4993991;28;45208;-39